createdAt,value
2023-05-22T00:01:59.304Z,16.90
2023-05-22T00:05:01.473Z,16.90
2023-05-22T00:08:04.747Z,16.90
2023-05-22T00:11:06.541Z,16.90
2023-05-22T00:14:08.307Z,16.90
2023-05-22T00:17:10.237Z,16.80
2023-05-22T00:20:12.354Z,16.90
2023-05-22T00:23:15.680Z,16.90
2023-05-22T00:26:17.526Z,16.90
2023-05-22T00:29:19.229Z,16.80
2023-05-22T00:32:21.085Z,16.80
2023-05-22T00:35:23.258Z,16.80
2023-05-22T00:38:33.768Z,16.70
2023-05-22T00:41:35.920Z,16.70
2023-05-22T00:44:38.100Z,16.70
2023-05-22T00:47:40.515Z,16.70
2023-05-22T00:50:42.649Z,16.60
2023-05-22T00:53:46.096Z,16.60
2023-05-22T00:56:48.660Z,16.50
2023-05-22T00:59:50.833Z,16.50
2023-05-22T01:02:52.770Z,16.50
2023-05-22T01:05:55.609Z,16.50
2023-05-22T01:08:58.003Z,16.40
2023-05-22T01:12:12.078Z,16.40
2023-05-22T01:15:31.835Z,16.40
2023-05-22T01:18:57.667Z,16.40
2023-05-22T01:22:22.800Z,16.30
2023-05-22T01:25:59.624Z,16.30
2023-05-22T01:29:33.178Z,16.30
2023-05-22T01:32:36.673Z,16.20
2023-05-22T01:35:40.996Z,16.30
2023-05-22T01:38:43.127Z,16.20
2023-05-22T01:41:45.460Z,16.20
2023-05-22T01:44:48.579Z,16.10
2023-05-22T01:47:51.155Z,16.10
2023-05-22T01:50:54.723Z,16.10
2023-05-22T01:54:07.412Z,16.10
2023-05-22T01:57:26.799Z,16.10
2023-05-22T02:00:29.939Z,16.10
2023-05-22T02:03:34.962Z,16.20
2023-05-22T02:06:38.462Z,16.20
2023-05-22T02:09:41.063Z,16.20
2023-05-22T02:12:43.402Z,16.30
2023-05-22T02:15:47.524Z,16.20
2023-05-22T02:18:49.470Z,16.30
2023-05-22T02:21:51.269Z,16.20
2023-05-22T02:24:52.995Z,16.30
2023-05-22T02:27:54.792Z,16.30
2023-05-22T02:30:56.557Z,16.20
2023-05-22T02:33:58.471Z,16.20
2023-05-22T02:37:03.512Z,16.20
2023-05-22T02:40:06.681Z,16.20
2023-05-22T02:43:08.648Z,16.20
2023-05-22T02:46:11.609Z,16.10
2023-05-22T02:49:14.001Z,16.10
2023-05-22T02:52:16.063Z,16.10
2023-05-22T02:55:17.871Z,16.10
2023-05-22T02:58:21.200Z,16.10
2023-05-22T03:01:23.241Z,16.00
2023-05-22T03:04:25.003Z,16.00
2023-05-22T03:07:29.364Z,16.00
2023-05-22T03:10:31.508Z,16.00
2023-05-22T03:13:33.212Z,15.90
2023-05-22T03:16:35.024Z,15.90
2023-05-22T03:19:37.186Z,15.80
2023-05-22T03:22:38.992Z,15.80
2023-05-22T03:25:40.742Z,15.80
2023-05-22T03:28:42.763Z,15.70
2023-05-22T03:31:45.315Z,15.70
2023-05-22T03:34:49.334Z,15.60
2023-05-22T03:37:51.170Z,15.60
2023-05-22T03:40:54.639Z,15.60
2023-05-22T03:43:57.248Z,15.70
2023-05-22T03:46:59.890Z,15.70
2023-05-22T03:50:01.588Z,15.70
2023-05-22T03:53:03.555Z,15.60
2023-05-22T03:56:06.241Z,15.70
2023-05-22T03:59:08.005Z,15.60
2023-05-22T04:02:13.064Z,15.60
2023-05-22T04:05:15.007Z,15.60
2023-05-22T04:08:16.976Z,15.60
2023-05-22T04:11:19.713Z,15.60
2023-05-22T04:14:21.834Z,15.60
2023-05-22T04:17:23.563Z,15.60
2023-05-22T04:20:25.343Z,15.60
2023-05-22T04:23:27.177Z,15.60
2023-05-22T04:26:32.040Z,15.60
2023-05-22T04:29:36.202Z,15.60
2023-05-22T04:32:38.231Z,15.70
2023-05-22T04:35:40.894Z,15.70
2023-05-22T04:38:44.839Z,15.70
2023-05-22T04:41:46.556Z,15.70
2023-05-22T04:44:48.270Z,15.70
2023-05-22T04:47:50.582Z,15.70
2023-05-22T04:50:54.216Z,15.80
2023-05-22T04:53:55.989Z,15.80
2023-05-22T04:56:58.223Z,15.90
2023-05-22T05:00:01.358Z,15.90
2023-05-22T05:03:08.131Z,15.90
2023-05-22T05:06:12.393Z,16.00
2023-05-22T05:09:14.129Z,16.10
2023-05-22T05:12:16.253Z,16.20
2023-05-22T05:15:18.087Z,16.30
2023-05-22T05:18:20.133Z,16.30
2023-05-22T05:21:22.994Z,16.30
2023-05-22T05:24:24.757Z,16.40
2023-05-22T05:27:26.572Z,16.50
2023-05-22T05:30:31.217Z,16.60
2023-05-22T05:33:41.792Z,16.50
2023-05-22T05:36:49.625Z,16.60
2023-05-22T05:39:52.543Z,16.60
2023-05-22T05:42:55.143Z,16.70
2023-05-22T05:46:00.374Z,16.70
2023-05-22T05:49:09.948Z,16.80
2023-05-22T05:52:12.662Z,16.80
2023-05-22T05:55:14.493Z,16.90
2023-05-22T05:58:16.699Z,16.90
2023-05-22T06:01:38.413Z,16.90
2023-05-22T06:04:42.036Z,17.00
2023-05-22T06:07:45.778Z,17.10
2023-05-22T06:10:48.236Z,17.10
2023-05-22T06:14:07.266Z,17.20
2023-05-22T06:17:09.288Z,17.30
2023-05-22T06:20:14.370Z,17.40
2023-05-22T06:23:17.315Z,17.50
2023-05-22T06:26:19.284Z,17.50
2023-05-22T06:29:22.442Z,17.70
2023-05-22T06:32:25.298Z,17.70
2023-05-22T06:35:28.621Z,17.80
2023-05-22T06:38:31.533Z,17.80
2023-05-22T06:41:34.648Z,18.00
2023-05-22T06:44:37.815Z,18.00
2023-05-22T06:47:41.377Z,18.20
2023-05-22T06:50:43.327Z,18.40
2023-05-22T06:53:45.061Z,18.40
2023-05-22T06:56:54.909Z,18.50
2023-05-22T07:00:00.385Z,18.50
2023-05-22T07:03:21.304Z,18.70
2023-05-22T07:06:42.437Z,18.70
2023-05-22T07:09:45.346Z,18.70
2023-05-22T07:12:47.386Z,18.70
2023-05-22T07:15:49.321Z,18.70
2023-05-22T07:18:52.251Z,18.80
2023-05-22T07:21:54.253Z,18.80
2023-05-22T07:24:57.140Z,18.80
2023-05-22T07:28:09.331Z,18.80
2023-05-22T07:31:20.095Z,18.70
2023-05-22T07:34:34.252Z,18.80
2023-05-22T07:37:38.696Z,19.00
2023-05-22T07:40:40.790Z,19.00
2023-05-22T07:43:42.799Z,19.00
2023-05-22T07:46:46.578Z,19.00
2023-05-22T07:49:55.312Z,19.10
2023-05-22T07:52:57.034Z,19.20
2023-05-22T07:55:59.120Z,19.30
2023-05-22T07:59:01.648Z,19.40
2023-05-22T08:02:03.462Z,19.60
2023-05-22T08:05:06.088Z,19.70
2023-05-22T08:08:07.931Z,19.90
2023-05-22T08:11:09.896Z,20.00
2023-05-22T08:14:11.860Z,20.20
2023-05-22T08:17:13.711Z,20.20
2023-05-22T08:20:15.543Z,20.20
2023-05-22T08:23:17.325Z,20.30
2023-05-22T08:26:19.035Z,20.50
2023-05-22T08:29:20.959Z,20.50
2023-05-22T08:32:23.098Z,20.50
2023-05-22T08:35:24.885Z,20.80
2023-05-22T08:38:26.641Z,20.80
2023-05-22T08:41:29.200Z,20.90
2023-05-22T08:44:31.390Z,20.90
2023-05-22T08:47:36.725Z,20.90
2023-05-22T08:50:42.297Z,21.10
2023-05-22T08:53:44.440Z,21.20
2023-05-22T08:56:56.326Z,21.40
2023-05-22T08:59:58.855Z,21.30
2023-05-22T09:03:00.700Z,21.40
2023-05-22T09:06:03.045Z,21.50
2023-05-22T09:09:04.798Z,21.50
2023-05-22T09:12:10.196Z,21.40
2023-05-22T09:15:13.557Z,21.50
2023-05-22T09:18:15.242Z,21.60
2023-05-22T09:21:28.771Z,21.90
2023-05-22T09:24:37.572Z,22.00
2023-05-22T09:27:39.269Z,21.90
2023-05-22T09:30:42.496Z,22.10
2023-05-22T09:33:44.964Z,22.30
2023-05-22T09:36:46.738Z,22.40
2023-05-22T09:39:51.362Z,22.50
2023-05-22T09:42:53.107Z,22.70
2023-05-22T09:46:00.858Z,22.80
2023-05-22T09:49:04.359Z,23.00
2023-05-22T09:52:08.699Z,23.00
2023-05-22T09:55:12.679Z,23.20
2023-05-22T09:58:18.662Z,23.00
2023-05-22T10:01:22.990Z,23.40
2023-05-22T10:04:25.928Z,23.10
2023-05-22T10:07:37.395Z,23.00
2023-05-22T10:10:41.019Z,23.20
2023-05-22T10:13:45.049Z,23.20
2023-05-22T10:16:47.098Z,23.10
2023-05-22T10:19:49.638Z,23.40
2023-05-22T10:22:53.233Z,23.90
2023-05-22T10:25:55.816Z,24.00
2023-05-22T10:29:22.136Z,24.30
2023-05-22T10:32:35.123Z,24.70
2023-05-22T10:36:11.007Z,25.00
2023-05-22T10:39:31.261Z,25.10
2023-05-22T10:42:33.280Z,25.40
2023-05-22T10:45:36.533Z,25.70
2023-05-22T10:48:45.282Z,25.90
2023-05-22T10:51:47.073Z,25.80
2023-05-22T10:54:53.508Z,25.80
2023-05-22T10:57:56.846Z,26.00
2023-05-22T11:01:18.309Z,25.60
2023-05-22T11:04:25.724Z,25.80
2023-05-22T11:07:40.313Z,25.70
2023-05-22T11:11:01.413Z,25.70
2023-05-22T11:14:04.241Z,25.80
2023-05-22T11:17:06.607Z,25.50
2023-05-22T11:20:22.621Z,25.30
2023-05-22T11:23:26.225Z,25.10
2023-05-22T11:26:28.289Z,24.80
2023-05-22T11:29:30.938Z,24.80
2023-05-22T11:32:35.071Z,24.70
2023-05-22T11:35:37.562Z,24.60
2023-05-22T11:38:41.159Z,24.70
2023-05-22T11:41:42.923Z,24.40
2023-05-22T11:44:45.022Z,24.70
2023-05-22T11:47:46.924Z,24.50
2023-05-22T11:50:48.847Z,24.50
2023-05-22T11:53:51.046Z,24.40
2023-05-22T11:56:52.996Z,24.40
2023-05-22T11:59:54.733Z,24.50
2023-05-22T12:02:56.567Z,24.40
2023-05-22T12:05:58.946Z,24.60
2023-05-22T12:09:01.771Z,24.50
2023-05-22T12:12:03.832Z,24.50
2023-05-22T12:15:07.032Z,24.40
2023-05-22T12:18:09.825Z,24.20
2023-05-22T12:21:11.752Z,24.40
2023-05-22T12:24:13.545Z,24.30
2023-05-22T12:27:15.762Z,24.50
2023-05-22T12:30:18.071Z,24.40
2023-05-22T12:33:20.399Z,24.40
2023-05-22T12:36:41.068Z,24.40
2023-05-22T12:40:03.812Z,24.60
2023-05-22T12:43:05.524Z,24.40
2023-05-22T12:46:07.267Z,24.40
2023-05-22T12:49:09.301Z,24.40
2023-05-22T12:52:11.002Z,24.50
2023-05-22T12:55:12.792Z,24.50
2023-05-22T12:58:14.567Z,24.50
2023-05-22T13:01:16.639Z,24.70
2023-05-22T13:04:18.395Z,24.70
2023-05-22T13:07:20.109Z,24.70
2023-05-22T13:10:21.891Z,24.80
2023-05-22T13:13:23.736Z,24.90
2023-05-22T13:16:25.787Z,24.90
2023-05-22T13:19:27.632Z,25.10
2023-05-22T13:22:29.468Z,25.00
2023-05-22T13:25:31.262Z,25.00
2023-05-22T13:28:32.991Z,25.00
2023-05-22T13:31:37.330Z,24.90
2023-05-22T13:34:42.958Z,25.30
2023-05-22T13:37:45.214Z,25.40
2023-05-22T13:40:48.736Z,25.60
2023-05-22T13:43:50.658Z,25.80
2023-05-22T13:46:52.605Z,25.60
2023-05-22T13:49:54.370Z,25.20
2023-05-22T13:52:56.462Z,25.20
2023-05-22T13:55:58.230Z,24.80
2023-05-22T13:58:59.995Z,24.70
2023-05-22T14:02:02.032Z,24.70
2023-05-22T14:05:03.931Z,24.70
2023-05-22T14:08:05.738Z,24.60
2023-05-22T14:11:07.490Z,24.50
2023-05-22T14:14:09.208Z,24.70
2023-05-22T14:17:11.025Z,24.80
2023-05-22T14:20:12.857Z,24.90
2023-05-22T14:23:14.839Z,24.70
2023-05-22T14:26:16.585Z,24.50
2023-05-22T14:29:18.715Z,24.50
2023-05-22T14:32:20.445Z,24.40
2023-05-22T14:35:22.286Z,24.50
2023-05-22T14:38:24.094Z,24.70
2023-05-22T14:41:26.463Z,24.80
2023-05-22T14:44:28.179Z,24.90
2023-05-22T14:47:29.890Z,25.10
2023-05-22T14:50:31.597Z,25.30
2023-05-22T14:53:33.573Z,24.90
2023-05-22T14:56:35.267Z,24.80
2023-05-22T14:59:37.026Z,24.70
2023-05-22T15:02:39.197Z,24.90
2023-05-22T15:05:41.224Z,24.80
2023-05-22T15:08:43.132Z,24.70
2023-05-22T15:11:48.912Z,24.60
2023-05-22T15:14:50.615Z,24.60
2023-05-22T15:17:52.358Z,24.80
2023-05-22T15:20:54.188Z,24.80
2023-05-22T15:23:56.200Z,25.00
2023-05-22T15:26:57.962Z,25.10
2023-05-22T15:29:59.669Z,25.00
2023-05-22T15:33:03.283Z,24.90
2023-05-22T15:36:06.059Z,24.70
2023-05-22T15:39:07.785Z,24.80
2023-05-22T15:42:09.502Z,24.90
2023-05-22T15:45:11.299Z,24.90
2023-05-22T15:48:13.036Z,24.70
2023-05-22T15:51:14.933Z,24.80
2023-05-22T15:54:16.699Z,24.90
2023-05-22T15:57:18.519Z,24.70
2023-05-22T16:00:21.404Z,24.50
2023-05-22T16:03:23.467Z,24.30
2023-05-22T16:06:27.690Z,24.20
2023-05-22T16:09:31.413Z,24.10
2023-05-22T16:12:34.333Z,23.90
2023-05-22T16:15:37.582Z,23.70
2023-05-22T16:18:40.469Z,23.60
2023-05-22T16:21:42.232Z,23.50
2023-05-22T16:24:43.988Z,23.40
2023-05-22T16:27:45.853Z,23.40
2023-05-22T16:30:47.601Z,22.90
2023-05-22T16:33:49.512Z,22.80
2023-05-22T16:36:51.341Z,22.60
2023-05-22T16:39:53.085Z,22.30
2023-05-22T16:42:54.854Z,22.20
2023-05-22T16:45:56.729Z,22.00
2023-05-22T16:48:58.451Z,21.80
2023-05-22T16:52:00.321Z,21.80
2023-05-22T16:55:02.232Z,21.70
2023-05-22T16:58:03.958Z,21.80
2023-05-22T17:01:06.414Z,21.60
2023-05-22T17:04:08.261Z,21.60
2023-05-22T17:07:10.017Z,21.70
2023-05-22T17:10:12.027Z,21.60
2023-05-22T17:13:20.562Z,21.50
2023-05-22T17:16:22.433Z,21.40
2023-05-22T17:19:24.173Z,21.20
2023-05-22T17:22:25.881Z,20.90
2023-05-22T17:25:27.595Z,20.70
2023-05-22T17:28:29.360Z,20.60
2023-05-22T17:31:31.438Z,20.50
2023-05-22T17:34:33.634Z,20.60
2023-05-22T17:37:35.316Z,20.50
2023-05-22T17:40:44.977Z,20.60
2023-05-22T17:43:47.878Z,20.70
2023-05-22T17:46:49.577Z,20.90
2023-05-22T17:49:51.279Z,20.80
2023-05-22T17:52:53.049Z,20.70
2023-05-22T17:55:54.816Z,20.80
2023-05-22T17:58:56.672Z,20.80
2023-05-22T18:01:58.518Z,20.90
2023-05-22T18:05:00.578Z,20.80
2023-05-22T18:08:02.390Z,20.90
2023-05-22T18:11:05.057Z,20.80
2023-05-22T18:14:06.797Z,20.80
2023-05-22T18:17:08.516Z,20.90
2023-05-22T18:20:12.073Z,20.80
2023-05-22T18:23:13.822Z,20.90
2023-05-22T18:26:16.171Z,20.90
2023-05-22T18:29:18.634Z,20.80
2023-05-22T18:32:20.378Z,20.90
2023-05-22T18:35:22.187Z,20.90
2023-05-22T18:38:24.492Z,20.80
2023-05-22T18:41:27.277Z,20.80
2023-05-22T18:44:29.060Z,20.80
2023-05-22T18:47:30.817Z,20.80
2023-05-22T18:50:32.563Z,20.70
2023-05-22T18:53:34.274Z,20.70
2023-05-22T18:56:36.725Z,20.50
2023-05-22T18:59:38.500Z,20.50
2023-05-22T19:02:40.431Z,20.40
2023-05-22T19:05:43.018Z,20.30
2023-05-22T19:08:44.733Z,20.30
2023-05-22T19:11:46.459Z,20.30
2023-05-22T19:14:48.313Z,20.30
2023-05-22T19:17:50.096Z,20.20
2023-05-22T19:20:51.878Z,20.10
2023-05-22T19:23:53.775Z,20.10
2023-05-22T19:26:55.553Z,20.00
2023-05-22T19:29:57.250Z,19.90
2023-05-22T19:32:59.454Z,19.90
2023-05-22T19:36:06.428Z,19.80
2023-05-22T19:39:08.118Z,19.80
2023-05-22T19:42:10.697Z,19.60
2023-05-22T19:45:12.475Z,19.50
2023-05-22T19:48:14.800Z,19.50
2023-05-22T19:51:16.667Z,19.60
2023-05-22T19:54:18.380Z,19.40
2023-05-22T19:57:20.115Z,19.30
2023-05-22T20:00:22.592Z,19.20
2023-05-22T20:03:24.644Z,19.20
2023-05-22T20:06:31.279Z,19.20
2023-05-22T20:09:33.032Z,19.00
2023-05-22T20:12:35.000Z,19.00
2023-05-22T20:15:37.775Z,19.00
2023-05-22T20:18:41.024Z,19.00
2023-05-22T20:21:43.033Z,18.90
2023-05-22T20:24:44.765Z,18.80
2023-05-22T20:27:46.794Z,18.70
2023-05-22T20:30:49.778Z,18.60
2023-05-22T20:33:51.488Z,18.60
2023-05-22T20:36:54.125Z,18.50
2023-05-22T20:39:55.841Z,18.50
2023-05-22T20:42:57.776Z,18.30
2023-05-22T20:45:59.577Z,18.30
2023-05-22T20:49:03.354Z,18.10
2023-05-22T20:52:05.647Z,18.10
2023-05-22T20:55:07.854Z,18.10
2023-05-22T20:58:09.665Z,17.90
2023-05-22T21:01:11.460Z,17.80
2023-05-22T21:04:13.297Z,17.90
2023-05-22T21:07:15.385Z,17.70
2023-05-22T21:10:17.316Z,17.60
2023-05-22T21:13:19.574Z,17.60
2023-05-22T21:16:21.392Z,17.50
2023-05-22T21:19:23.267Z,17.80
2023-05-22T21:22:25.119Z,17.60
2023-05-22T21:25:26.845Z,17.80
2023-05-22T21:28:28.868Z,17.40
2023-05-22T21:31:31.512Z,17.40
2023-05-22T21:34:34.505Z,17.30
2023-05-22T21:37:36.254Z,17.30
2023-05-22T21:40:40.516Z,17.40
2023-05-22T21:43:42.553Z,17.30
2023-05-22T21:46:44.285Z,17.20
2023-05-22T21:49:46.161Z,17.20
2023-05-22T21:52:47.891Z,17.10
2023-05-22T21:55:49.728Z,17.10
2023-05-22T21:58:51.429Z,17.10
2023-05-22T22:01:53.219Z,17.00
2023-05-22T22:04:54.957Z,16.90
2023-05-22T22:07:56.920Z,16.90
2023-05-22T22:10:59.182Z,16.90
2023-05-22T22:14:00.924Z,16.80
2023-05-22T22:17:05.622Z,16.70
2023-05-22T22:20:08.664Z,16.70
2023-05-22T22:23:10.439Z,16.80
2023-05-22T22:26:12.651Z,16.70
2023-05-22T22:29:14.605Z,16.60
2023-05-22T22:32:16.523Z,16.60
2023-05-22T22:35:19.453Z,16.50
2023-05-22T22:38:21.194Z,16.50
2023-05-22T22:41:22.970Z,16.60
2023-05-22T22:44:24.680Z,16.50
2023-05-22T22:47:27.904Z,16.30
2023-05-22T22:50:29.732Z,16.40
2023-05-22T22:53:31.603Z,16.40
2023-05-22T22:56:33.414Z,16.30
2023-05-22T22:59:36.091Z,16.30
2023-05-22T23:02:37.962Z,16.30
2023-05-22T23:05:40.047Z,16.30
2023-05-22T23:08:42.062Z,16.30
2023-05-22T23:11:43.787Z,16.20
2023-05-22T23:14:45.541Z,16.30
2023-05-22T23:17:49.057Z,16.20
2023-05-22T23:20:52.895Z,16.20
2023-05-22T23:23:54.592Z,16.20
2023-05-22T23:26:56.298Z,16.20
2023-05-22T23:29:58.231Z,16.20
2023-05-22T23:33:02.335Z,16.20
2023-05-22T23:36:04.140Z,16.30
2023-05-22T23:39:06.007Z,16.20
2023-05-22T23:42:09.750Z,16.20
2023-05-22T23:45:11.581Z,16.20
2023-05-22T23:48:13.753Z,16.20
2023-05-22T23:51:16.788Z,16.10
2023-05-22T23:54:18.522Z,16.10
2023-05-22T23:57:20.416Z,16.00
